Terminal Aerodrome Forecast
Issued by NWS Charleston, WV

Current Version | Previous Version | Graphics & Text | Print | Product List | Glossary On
Versions: 1 2 3 4 5 6 7 8 9 10 11 12 13 14 15 16 17 18 19 20 21 22 23 24 25
000
FTUS41 KRLX 260500 RRA
TAFEKN
TAF
KEKN 260545Z 2606/2706 00000KT P6SM OVC070
     FM261000 00000KT 6SM -SN BR OVC045
     FM261100 00000KT 4SM -SN BR OVC025
     FM261200 00000KT 4SM -SN BR OVC015
     FM261700 00000KT 6SM -SHSN BR OVC010
     FM262300 30004KT 2SM -SHSN BR OVC008=

USA.gov is the U.S. government's official web portal to all federal, state and local government web resources and services.